sensor_id;sensor_type;location;lat;lon;timestamp;pressure;altitude;pressure_sealevel;temperature;humidity
7168;BME280;3625;51.762;14.320;2023-03-04T00:00:09;101049.66;;;3.15;100.00
7168;BME280;3625;51.762;14.320;2023-03-04T00:02:38;101054.94;;;3.18;100.00
7168;BME280;3625;51.762;14.320;2023-03-04T00:05:07;101004.59;;;2.80;100.00
7168;BME280;3625;51.762;14.320;2023-03-04T00:07:36;101056.69;;;3.17;100.00
7168;BME280;3625;51.762;14.320;2023-03-04T00:10:08;101051.41;;;3.16;100.00
7168;BME280;3625;51.762;14.320;2023-03-04T00:12:37;101062.69;;;3.13;100.00
7168;BME280;3625;51.762;14.320;2023-03-04T00:15:06;101060.00;;;3.09;100.00
7168;BME280;3625;51.762;14.320;2023-03-04T00:17:35;101044.22;;;3.04;100.00
7168;BME280;3625;51.762;14.320;2023-03-04T00:20:05;101054.84;;;3.13;100.00
7168;BME280;3625;51.762;14.320;2023-03-04T00:22:34;101045.25;;;3.11;100.00
7168;BME280;3625;51.762;14.320;2023-03-04T00:25:03;101039.88;;;3.04;100.00
7168;BME280;3625;51.762;14.320;2023-03-04T00:27:33;101034.75;;;3.09;100.00
7168;BME280;3625;51.762;14.320;2023-03-04T00:30:02;101028.69;;;3.12;100.00
7168;BME280;3625;51.762;14.320;2023-03-04T00:32:31;101024.16;;;3.03;100.00
7168;BME280;3625;51.762;14.320;2023-03-04T00:35:00;101021.59;;;3.04;100.00
7168;BME280;3625;51.762;14.320;2023-03-04T00:37:29;101026.88;;;3.08;100.00
7168;BME280;3625;51.762;14.320;2023-03-04T00:39:58;101015.38;;;2.98;100.00
7168;BME280;3625;51.762;14.320;2023-03-04T00:42:27;101014.44;;;2.93;100.00
7168;BME280;3625;51.762;14.320;2023-03-04T00:44:56;101019.91;;;3.07;100.00
7168;BME280;3625;51.762;14.320;2023-03-04T00:47:25;101017.19;;;3.00;100.00
7168;BME280;3625;51.762;14.320;2023-03-04T00:49:54;101017.22;;;3.02;100.00
7168;BME280;3625;51.762;14.320;2023-03-04T00:52:23;101008.50;;;3.03;100.00
7168;BME280;3625;51.762;14.320;2023-03-04T00:54:51;101005.84;;;3.00;100.00
7168;BME280;3625;51.762;14.320;2023-03-04T00:57:20;101003.16;;;2.97;100.00
7168;BME280;3625;51.762;14.320;2023-03-04T00:59:49;101012.81;;;2.99;100.00
7168;BME280;3625;51.762;14.320;2023-03-04T01:02:19;101017.31;;;3.08;100.00
7168;BME280;3625;51.762;14.320;2023-03-04T01:04:48;101005.00;;;3.01;100.00
7168;BME280;3625;51.762;14.320;2023-03-04T01:07:17;101005.88;;;3.01;100.00
7168;BME280;3625;51.762;14.320;2023-03-04T01:09:45;101000.66;;;3.03;100.00
7168;BME280;3625;51.762;14.320;2023-03-04T01:12:14;101000.66;;;3.01;100.00
7168;BME280;3625;51.762;14.320;2023-03-04T01:14:43;101004.28;;;3.10;100.00
7168;BME280;3625;51.762;14.320;2023-03-04T01:17:12;100991.09;;;3.05;100.00
7168;BME280;3625;51.762;14.320;2023-03-04T01:19:43;100985.94;;;3.08;100.00
7168;BME280;3625;51.762;14.320;2023-03-04T01:22:12;100973.63;;;3.01;100.00
7168;BME280;3625;51.762;14.320;2023-03-04T01:24:42;100818.97;;;2.18;100.00
7168;BME280;3625;51.762;14.320;2023-03-04T01:27:11;100962.31;;;3.03;100.00
7168;BME280;3625;51.762;14.320;2023-03-04T01:29:39;100958.00;;;3.06;100.00
7168;BME280;3625;51.762;14.320;2023-03-04T01:32:08;100947.53;;;3.04;100.00
7168;BME280;3625;51.762;14.320;2023-03-04T01:34:37;100936.22;;;3.05;100.00
7168;BME280;3625;51.762;14.320;2023-03-04T01:37:07;100943.25;;;3.08;100.00
7168;BME280;3625;51.762;14.320;2023-03-04T01:39:36;100926.72;;;3.12;100.00
7168;BME280;3625;51.762;14.320;2023-03-04T01:42:05;100928.41;;;3.07;100.00
7168;BME280;3625;51.762;14.320;2023-03-04T01:44:34;100916.16;;;3.02;100.00
7168;BME280;3625;51.762;14.320;2023-03-04T01:47:03;100913.56;;;3.02;100.00
7168;BME280;3625;51.762;14.320;2023-03-04T01:49:33;100915.28;;;3.03;100.00
7168;BME280;3625;51.762;14.320;2023-03-04T01:52:01;100911.81;;;3.04;100.00
7168;BME280;3625;51.762;14.320;2023-03-04T01:54:31;100910.19;;;3.11;100.00
7168;BME280;3625;51.762;14.320;2023-03-04T01:57:14;100904.19;;;3.17;100.00
7168;BME280;3625;51.762;14.320;2023-03-04T01:59:45;100891.03;;;3.11;100.00
7168;BME280;3625;51.762;14.320;2023-03-04T02:02:14;100891.91;;;3.11;100.00
7168;BME280;3625;51.762;14.320;2023-03-04T02:04:43;100890.88;;;3.03;100.00
7168;BME280;3625;51.762;14.320;2023-03-04T02:07:12;100901.44;;;3.09;100.00
7168;BME280;3625;51.762;14.320;2023-03-04T02:09:42;100889.41;;;3.20;100.00
7168;BME280;3625;51.762;14.320;2023-03-04T02:12:14;100842.44;;;2.69;100.00
7168;BME280;3625;51.762;14.320;2023-03-04T02:14:45;100911.03;;;3.09;100.00
7168;BME280;3625;51.762;14.320;2023-03-04T02:17:13;100906.69;;;3.12;100.00
7168;BME280;3625;51.762;14.320;2023-03-04T02:19:52;100902.31;;;3.08;100.00
7168;BME280;3625;51.762;14.320;2023-03-04T02:22:24;100891.91;;;3.11;100.00
7168;BME280;3625;51.762;14.320;2023-03-04T02:25:03;100895.50;;;3.19;100.00
7168;BME280;3625;51.762;14.320;2023-03-04T02:27:36;100875.28;;;3.08;100.00
7168;BME280;3625;51.762;14.320;2023-03-04T02:30:06;100896.50;;;3.27;100.00
7168;BME280;3625;51.762;14.320;2023-03-04T02:32:35;100890.38;;;3.27;100.00
7168;BME280;3625;51.762;14.320;2023-03-04T02:35:05;100881.59;;;3.23;100.00
7168;BME280;3625;51.762;14.320;2023-03-04T02:37:36;100872.88;;;3.23;100.00
7168;BME280;3625;51.762;14.320;2023-03-04T02:40:08;100874.09;;;3.48;100.00
7168;BME280;3625;51.762;14.320;2023-03-04T02:42:44;100827.47;;;3.15;100.00
7168;BME280;3625;51.762;14.320;2023-03-04T02:45:36;100875.69;;;3.35;100.00
7168;BME280;3625;51.762;14.320;2023-03-04T02:48:08;100862.44;;;3.24;100.00
7168;BME280;3625;51.762;14.320;2023-03-04T02:50:42;100873.72;;;3.19;100.00
7168;BME280;3625;51.762;14.320;2023-03-04T02:53:12;100866.81;;;3.25;100.00
7168;BME280;3625;51.762;14.320;2023-03-04T02:55:42;100878.28;;;3.33;100.00
7168;BME280;3625;51.762;14.320;2023-03-04T02:58:13;100872.97;;;3.30;100.00
7168;BME280;3625;51.762;14.320;2023-03-04T03:00:42;100882.50;;;3.25;100.00
7168;BME280;3625;51.762;14.320;2023-03-04T03:03:11;100867.72;;;3.27;100.00
7168;BME280;3625;51.762;14.320;2023-03-04T03:05:41;100871.19;;;3.25;100.00
7168;BME280;3625;51.762;14.320;2023-03-04T03:08:11;100868.56;;;3.25;100.00
7168;BME280;3625;51.762;14.320;2023-03-04T03:10:40;100870.31;;;3.26;100.00
7168;BME280;3625;51.762;14.320;2023-03-04T03:13:09;100868.50;;;3.22;100.00
7168;BME280;3625;51.762;14.320;2023-03-04T03:15:39;100863.19;;;3.16;100.00
7168;BME280;3625;51.762;14.320;2023-03-04T03:18:10;100874.47;;;3.10;100.00
7168;BME280;3625;51.762;14.320;2023-03-04T03:20:38;100871.00;;;3.11;100.00
7168;BME280;3625;51.762;14.320;2023-03-04T03:23:08;100877.19;;;3.18;100.00
7168;BME280;3625;51.762;14.320;2023-03-04T03:25:37;100869.19;;;3.07;100.00
7168;BME280;3625;51.762;14.320;2023-03-04T03:28:06;100884.97;;;3.15;100.00
7168;BME280;3625;51.762;14.320;2023-03-04T03:30:38;100877.03;;;3.09;100.00
7168;BME280;3625;51.762;14.320;2023-03-04T03:33:07;100878.84;;;3.13;100.00
7168;BME280;3625;51.762;14.320;2023-03-04T03:35:37;100832.13;;;2.75;100.00
7168;BME280;3625;51.762;14.320;2023-03-04T03:38:05;100889.25;;;3.10;100.00
7168;BME280;3625;51.762;14.320;2023-03-04T03:40:34;100890.16;;;3.10;100.00
7168;BME280;3625;51.762;14.320;2023-03-04T03:43:03;100902.31;;;3.08;100.00
7168;BME280;3625;51.762;14.320;2023-03-04T03:45:32;100885.66;;;3.01;100.00
7168;BME280;3625;51.762;14.320;2023-03-04T03:48:02;100890.78;;;2.97;100.00
7168;BME280;3625;51.762;14.320;2023-03-04T03:50:31;100877.81;;;3.01;100.00
7168;BME280;3625;51.762;14.320;2023-03-04T03:52:59;100887.44;;;3.06;100.00
7168;BME280;3625;51.762;14.320;2023-03-04T03:55:28;100866.44;;;2.98;100.00
7168;BME280;3625;51.762;14.320;2023-03-04T03:57:57;100855.16;;;3.03;100.00
7168;BME280;3625;51.762;14.320;2023-03-04T04:00:26;100856.06;;;3.04;100.00
7168;BME280;3625;51.762;14.320;2023-03-04T04:02:57;100841.97;;;2.94;100.00
7168;BME280;3625;51.762;14.320;2023-03-04T04:05:30;100852.56;;;3.03;100.00
7168;BME280;3625;51.762;14.320;2023-03-04T04:07:58;100856.09;;;3.06;100.00
7168;BME280;3625;51.762;14.320;2023-03-04T04:10:27;100847.38;;;3.07;100.00
7168;BME280;3625;51.762;14.320;2023-03-04T04:12:56;100854.28;;;3.03;100.00
7168;BME280;3625;51.762;14.320;2023-03-04T04:15:25;100841.22;;;3.01;100.00
7168;BME280;3625;51.762;14.320;2023-03-04T04:17:54;100839.53;;;3.07;100.00
7168;BME280;3625;51.762;14.320;2023-03-04T04:20:23;100836.06;;;3.06;100.00
7168;BME280;3625;51.762;14.320;2023-03-04T04:22:53;100829.97;;;3.07;100.00
7168;BME280;3625;51.762;14.320;2023-03-04T04:25:22;100820.34;;;3.04;100.00
7168;BME280;3625;51.762;14.320;2023-03-04T04:27:51;100817.78;;;3.08;100.00
7168;BME280;3625;51.762;14.320;2023-03-04T04:30:20;100815.22;;;3.12;100.00
7168;BME280;3625;51.762;14.320;2023-03-04T04:32:49;100812.50;;;3.04;100.00
7168;BME280;3625;51.762;14.320;2023-03-04T04:35:18;100813.41;;;3.07;100.00
7168;BME280;3625;51.762;14.320;2023-03-04T04:37:47;100802.97;;;3.08;100.00
7168;BME280;3625;51.762;14.320;2023-03-04T04:40:17;100803.81;;;3.06;100.00
7168;BME280;3625;51.762;14.320;2023-03-04T04:42:46;100801.94;;;2.97;100.00
7168;BME280;3625;51.762;14.320;2023-03-04T04:45:15;100792.44;;;3.00;100.00
7168;BME280;3625;51.762;14.320;2023-03-04T04:47:43;100798.56;;;3.02;100.00
7168;BME280;3625;51.762;14.320;2023-03-04T04:50:12;100789.84;;;3.03;100.00
7168;BME280;3625;51.762;14.320;2023-03-04T04:52:41;100785.59;;;3.10;100.00
7168;BME280;3625;51.762;14.320;2023-03-04T04:55:10;100729.38;;;2.75;100.00
7168;BME280;3625;51.762;14.320;2023-03-04T04:57:40;100784.72;;;3.10;100.00
7168;BME280;3625;51.762;14.320;2023-03-04T05:00:10;100794.25;;;3.08;100.00
7168;BME280;3625;51.762;14.320;2023-03-04T05:02:40;100793.41;;;3.09;100.00
7168;BME280;3625;51.762;14.320;2023-03-04T05:05:09;100793.50;;;3.16;100.00
7168;BME280;3625;51.762;14.320;2023-03-04T05:07:38;100785.59;;;3.12;100.00
7168;BME280;3625;51.762;14.320;2023-03-04T05:10:08;100644.31;;;2.30;100.00
7168;BME280;3625;51.762;14.320;2023-03-04T05:12:37;100783.91;;;3.15;100.00
7168;BME280;3625;51.762;14.320;2023-03-04T05:15:08;100747.81;;;2.88;100.00
7168;BME280;3625;51.762;14.320;2023-03-04T05:17:38;100782.13;;;3.14;100.00
7168;BME280;3625;51.762;14.320;2023-03-04T05:20:07;100785.63;;;3.15;100.00
7168;BME280;3625;51.762;14.320;2023-03-04T05:22:37;100788.31;;;3.18;100.00
7168;BME280;3625;51.762;14.320;2023-03-04T05:25:06;100788.25;;;3.15;100.00
7168;BME280;3625;51.762;14.320;2023-03-04T05:27:34;100797.00;;;3.17;100.00
7168;BME280;3625;51.762;14.320;2023-03-04T05:30:09;100790.88;;;3.16;100.00
7168;BME280;3625;51.762;14.320;2023-03-04T05:32:38;100779.59;;;3.20;100.00
7168;BME280;3625;51.762;14.320;2023-03-04T05:35:07;100790.00;;;3.16;100.00
7168;BME280;3625;51.762;14.320;2023-03-04T05:37:36;100784.84;;;3.19;100.00
7168;BME280;3625;51.762;14.320;2023-03-04T05:40:06;100780.47;;;3.21;100.00
7168;BME280;3625;51.762;14.320;2023-03-04T05:42:35;100783.13;;;3.24;100.00
7168;BME280;3625;51.762;14.320;2023-03-04T05:45:05;100788.31;;;3.21;100.00
7168;BME280;3625;51.762;14.320;2023-03-04T05:47:35;100790.09;;;3.23;100.00
7168;BME280;3625;51.762;14.320;2023-03-04T05:50:05;100788.38;;;3.24;100.00
7168;BME280;3625;51.762;14.320;2023-03-04T05:52:33;100792.78;;;3.28;100.00
7168;BME280;3625;51.762;14.320;2023-03-04T05:55:02;100788.44;;;3.28;100.00
7168;BME280;3625;51.762;14.320;2023-03-04T05:57:31;100778.84;;;3.30;100.00
7168;BME280;3625;51.762;14.320;2023-03-04T06:00:04;100737.56;;;3.02;100.00
7168;BME280;3625;51.762;14.320;2023-03-04T06:02:43;100784.06;;;3.29;100.00
7168;BME280;3625;51.762;14.320;2023-03-04T06:05:13;100755.06;;;3.08;100.00
7168;BME280;3625;51.762;14.320;2023-03-04T06:07:43;100790.16;;;3.26;100.00
7168;BME280;3625;51.762;14.320;2023-03-04T06:10:14;100790.16;;;3.29;100.00
7168;BME280;3625;51.762;14.320;2023-03-04T06:12:43;100784.13;;;3.33;100.00
7168;BME280;3625;51.762;14.320;2023-03-04T06:15:13;100792.84;;;3.32;100.00
7168;BME280;3625;51.762;14.320;2023-03-04T06:17:43;100735.06;;;3.11;100.00
7168;BME280;3625;51.762;14.320;2023-03-04T06:20:12;100778.94;;;3.38;100.00
7168;BME280;3625;51.762;14.320;2023-03-04T06:22:41;100793.84;;;3.42;100.00
7168;BME280;3625;51.762;14.320;2023-03-04T06:25:10;100783.44;;;3.48;100.00
7168;BME280;3625;51.762;14.320;2023-03-04T06:27:38;100786.09;;;3.51;100.00
7168;BME280;3625;51.762;14.320;2023-03-04T06:30:09;100751.84;;;3.31;100.00
7168;BME280;3625;51.762;14.320;2023-03-04T06:32:38;100780.00;;;3.52;100.00
7168;BME280;3625;51.762;14.320;2023-03-04T06:35:12;100781.69;;;3.46;100.00
7168;BME280;3625;51.762;14.320;2023-03-04T06:37:42;100732.41;;;3.08;100.00
7168;BME280;3625;51.762;14.320;2023-03-04T06:40:13;100779.97;;;3.51;100.00
7168;BME280;3625;51.762;14.320;2023-03-04T06:42:42;100781.78;;;3.56;100.00
7168;BME280;3625;51.762;14.320;2023-03-04T06:45:11;100785.28;;;3.58;100.00
7168;BME280;3625;51.762;14.320;2023-03-04T06:47:40;100783.69;;;3.69;100.00
7168;BME280;3625;51.762;14.320;2023-03-04T06:50:13;100785.50;;;3.76;100.00
7168;BME280;3625;51.762;14.320;2023-03-04T06:52:41;100707.47;;;3.37;100.00
7168;BME280;3625;51.762;14.320;2023-03-04T06:55:10;100781.19;;;3.83;100.00
7168;BME280;3625;51.762;14.320;2023-03-04T06:57:39;100783.00;;;3.87;100.00
7168;BME280;3625;51.762;14.320;2023-03-04T07:00:09;100792.53;;;3.84;100.00
7168;BME280;3625;51.762;14.320;2023-03-04T07:02:38;100783.75;;;3.77;100.00
7168;BME280;3625;51.762;14.320;2023-03-04T07:05:08;100703.06;;;3.32;100.00
7168;BME280;3625;51.762;14.320;2023-03-04T07:07:41;100783.03;;;3.92;100.00
7168;BME280;3625;51.762;14.320;2023-03-04T07:10:10;100761.19;;;3.87;100.00
7168;BME280;3625;51.762;14.320;2023-03-04T07:12:39;100793.56;;;3.99;100.00
7168;BME280;3625;51.762;14.320;2023-03-04T07:15:09;100772.59;;;3.95;100.00
7168;BME280;3625;51.762;14.320;2023-03-04T07:17:38;100773.50;;;3.98;100.00
7168;BME280;3625;51.762;14.320;2023-03-04T07:20:08;100780.41;;;3.89;100.00
7168;BME280;3625;51.762;14.320;2023-03-04T07:22:37;100792.72;;;4.02;100.00
7168;BME280;3625;51.762;14.320;2023-03-04T07:25:08;100784.09;;;4.12;100.00
7168;BME280;3625;51.762;14.320;2023-03-04T07:27:37;100783.31;;;4.21;100.00
7168;BME280;3625;51.762;14.320;2023-03-04T07:30:08;100765.88;;;4.23;100.00
7168;BME280;3625;51.762;14.320;2023-03-04T07:32:38;100791.16;;;4.21;100.00
7168;BME280;3625;51.762;14.320;2023-03-04T07:35:07;100792.94;;;4.26;100.00
7168;BME280;3625;51.762;14.320;2023-03-04T07:37:36;100790.44;;;4.37;100.00
7168;BME280;3625;51.762;14.320;2023-03-04T07:40:10;100770.31;;;4.31;100.00
7168;BME280;3625;51.762;14.320;2023-03-04T07:42:38;100780.94;;;4.49;100.00
7168;BME280;3625;51.762;14.320;2023-03-04T07:45:11;100785.38;;;4.58;100.00
7168;BME280;3625;51.762;14.320;2023-03-04T07:47:40;100783.66;;;4.68;100.00
7168;BME280;3625;51.762;14.320;2023-03-04T07:50:11;100737.28;;;4.53;100.00
7168;BME280;3625;51.762;14.320;2023-03-04T07:52:42;100781.06;;;4.71;100.00
7168;BME280;3625;51.762;14.320;2023-03-04T07:55:14;100779.34;;;4.73;100.00
7168;BME280;3625;51.762;14.320;2023-03-04T07:57:46;100772.38;;;4.78;100.00
7168;BME280;3625;51.762;14.320;2023-03-04T08:00:16;100773.25;;;4.74;100.00
7168;BME280;3625;51.762;14.320;2023-03-04T08:02:45;100772.41;;;4.85;100.00
7168;BME280;3625;51.762;14.320;2023-03-04T08:05:15;100773.38;;;4.98;100.00
7168;BME280;3625;51.762;14.320;2023-03-04T08:07:43;100769.00;;;4.92;100.00
7168;BME280;3625;51.762;14.320;2023-03-04T08:10:13;100776.88;;;4.97;100.00
7168;BME280;3625;51.762;14.320;2023-03-04T08:12:42;100778.59;;;4.92;100.00
7168;BME280;3625;51.762;14.320;2023-03-04T08:15:11;100779.53;;;5.05;100.00
7168;BME280;3625;51.762;14.320;2023-03-04T08:17:40;100781.28;;;5.06;100.00
7168;BME280;3625;51.762;14.320;2023-03-04T08:20:11;100777.81;;;5.08;100.00
7168;BME280;3625;51.762;14.320;2023-03-04T08:22:40;100774.38;;;5.18;100.00
7168;BME280;3625;51.762;14.320;2023-03-04T08:25:09;100772.59;;;5.14;100.00
7168;BME280;3625;51.762;14.320;2023-03-04T08:27:39;100777.81;;;5.07;100.00
7168;BME280;3625;51.762;14.320;2023-03-04T08:30:10;100780.50;;;5.19;100.00
7168;BME280;3625;51.762;14.320;2023-03-04T08:32:39;100775.31;;;5.34;100.00
7168;BME280;3625;51.762;14.320;2023-03-04T08:35:07;100771.84;;;5.41;100.00
7168;BME280;3625;51.762;14.320;2023-03-04T08:37:37;100780.59;;;5.45;100.00
7168;BME280;3625;51.762;14.320;2023-03-04T08:40:06;100762.25;;;5.63;100.00
7168;BME280;3625;51.762;14.320;2023-03-04T08:42:35;100764.06;;;5.68;100.00
7168;BME280;3625;51.762;14.320;2023-03-04T08:45:07;100767.63;;;5.98;100.00
7168;BME280;3625;51.762;14.320;2023-03-04T08:47:36;100747.50;;;6.26;100.00
7168;BME280;3625;51.762;14.320;2023-03-04T08:50:07;100756.25;;;6.58;100.00
7168;BME280;3625;51.762;14.320;2023-03-04T08:52:36;100763.28;;;6.49;100.00
7168;BME280;3625;51.762;14.320;2023-03-04T08:55:05;100761.53;;;6.46;100.00
7168;BME280;3625;51.762;14.320;2023-03-04T08:57:34;100758.03;;;6.35;100.00
7168;BME280;3625;51.762;14.320;2023-03-04T09:00:05;100754.50;;;6.40;100.00
7168;BME280;3625;51.762;14.320;2023-03-04T09:02:34;100757.13;;;6.56;100.00
7168;BME280;3625;51.762;14.320;2023-03-04T09:05:04;100747.50;;;6.64;100.00
7168;BME280;3625;51.762;14.320;2023-03-04T09:07:33;100757.13;;;6.51;100.00
7168;BME280;3625;51.762;14.320;2023-03-04T09:10:01;100752.72;;;6.76;100.00
7168;BME280;3625;51.762;14.320;2023-03-04T09:12:30;100748.31;;;6.89;100.00
7168;BME280;3625;51.762;14.320;2023-03-04T09:14:59;100750.94;;;6.92;100.00
7168;BME280;3625;51.762;14.320;2023-03-04T09:17:40;100708.94;;;6.64;100.00
7168;BME280;3625;51.762;14.320;2023-03-04T09:20:11;100747.44;;;6.77;100.00
7168;BME280;3625;51.762;14.320;2023-03-04T09:22:41;100750.06;;;6.90;100.00
7168;BME280;3625;51.762;14.320;2023-03-04T09:25:13;100744.59;;;7.40;100.00
7168;BME280;3625;51.762;14.320;2023-03-04T09:27:42;100738.44;;;7.44;100.00
7168;BME280;3625;51.762;14.320;2023-03-04T09:30:12;100740.25;;;7.27;100.00
7168;BME280;3625;51.762;14.320;2023-03-04T09:32:42;100723.75;;;6.90;100.00
7168;BME280;3625;51.762;14.320;2023-03-04T09:35:11;100744.75;;;7.02;100.00
7168;BME280;3625;51.762;14.320;2023-03-04T09:37:39;100745.63;;;7.08;100.00
7168;BME280;3625;51.762;14.320;2023-03-04T09:40:15;100740.38;;;7.01;100.00
7168;BME280;3625;51.762;14.320;2023-03-04T09:42:49;100746.56;;;6.88;100.00
7168;BME280;3625;51.762;14.320;2023-03-04T09:45:22;100738.66;;;6.88;100.00
7168;BME280;3625;51.762;14.320;2023-03-04T09:47:54;100736.84;;;7.02;100.00
7168;BME280;3625;51.762;14.320;2023-03-04T09:50:24;100740.41;;;6.99;100.00
7168;BME280;3625;51.762;14.320;2023-03-04T09:53:06;100728.94;;;7.12;100.00
7168;BME280;3625;51.762;14.320;2023-03-04T09:55:43;100724.50;;;7.22;100.00
7168;BME280;3625;51.762;14.320;2023-03-04T09:58:26;100678.16;;;6.94;100.00
7168;BME280;3625;51.762;14.320;2023-03-04T10:01:09;100715.69;;;7.32;100.00
7168;BME280;3625;51.762;14.320;2023-03-04T10:03:45;100719.94;;;7.61;100.00
7168;BME280;3625;51.762;14.320;2023-03-04T10:06:18;100694.66;;;7.31;100.00
7168;BME280;3625;51.762;14.320;2023-03-04T10:08:53;100712.94;;;7.60;100.00
7168;BME280;3625;51.762;14.320;2023-03-04T10:11:27;100711.84;;;7.88;100.00
7168;BME280;3625;51.762;14.320;2023-03-04T10:14:15;100717.88;;;8.04;100.00
7168;BME280;3625;51.762;14.320;2023-03-04T10:16:54;100640.84;;;7.73;100.00
7168;BME280;3625;51.762;14.320;2023-03-04T10:19:37;100701.16;;;8.08;100.00
7168;BME280;3625;51.762;14.320;2023-03-04T10:22:20;100702.84;;;8.15;100.00
7168;BME280;3625;51.762;14.320;2023-03-04T10:24:54;100710.88;;;8.03;100.00
7168;BME280;3625;51.762;14.320;2023-03-04T10:27:24;100721.19;;;8.28;100.00
7168;BME280;3625;51.762;14.320;2023-03-04T10:29:59;100720.09;;;8.54;100.00
7168;BME280;3625;51.762;14.320;2023-03-04T10:32:28;100716.44;;;8.70;100.00
7168;BME280;3625;51.762;14.320;2023-03-04T10:34:58;100690.25;;;8.52;100.00
7168;BME280;3625;51.762;14.320;2023-03-04T10:37:44;100686.41;;;8.80;100.00
7168;BME280;3625;51.762;14.320;2023-03-04T10:40:22;100722.22;;;8.99;99.45
7168;BME280;3625;51.762;14.320;2023-03-04T10:42:52;100726.13;;;8.65;98.69
7168;BME280;3625;51.762;14.320;2023-03-04T10:45:23;100723.56;;;8.60;100.00
7168;BME280;3625;51.762;14.320;2023-03-04T10:47:54;100721.97;;;8.40;100.00
7168;BME280;3625;51.762;14.320;2023-03-04T10:50:27;100718.78;;;7.96;100.00
7168;BME280;3625;51.762;14.320;2023-03-04T10:52:56;100720.81;;;7.60;100.00
7168;BME280;3625;51.762;14.320;2023-03-04T10:55:28;100719.22;;;7.34;100.00
7168;BME280;3625;51.762;14.320;2023-03-04T10:58:03;100707.81;;;7.29;100.00
7168;BME280;3625;51.762;14.320;2023-03-04T11:00:34;100652.44;;;7.44;100.00
7168;BME280;3625;51.762;14.320;2023-03-04T11:03:27;100681.16;;;7.85;100.00
7168;BME280;3625;51.762;14.320;2023-03-04T11:06:16;100697.50;;;8.24;100.00
7168;BME280;3625;51.762;14.320;2023-03-04T11:08:53;100666.69;;;8.33;100.00
7168;BME280;3625;51.762;14.320;2023-03-04T11:11:27;100714.06;;;8.43;100.00
7168;BME280;3625;51.762;14.320;2023-03-04T11:14:08;100700.94;;;8.30;100.00
7168;BME280;3625;51.762;14.320;2023-03-04T11:16:41;100703.63;;;8.27;100.00
7168;BME280;3625;51.762;14.320;2023-03-04T11:19:23;100702.72;;;8.30;100.00
7168;BME280;3625;51.762;14.320;2023-03-04T11:21:56;100696.47;;;8.43;100.00
7168;BME280;3625;51.762;14.320;2023-03-04T11:24:28;100702.03;;;8.05;100.00
7168;BME280;3625;51.762;14.320;2023-03-04T11:27:02;100692.56;;;7.86;100.00
7168;BME280;3625;51.762;14.320;2023-03-04T11:29:37;100645.28;;;7.66;100.00
7168;BME280;3625;51.762;14.320;2023-03-04T11:32:17;100582.53;;;7.04;100.00
7168;BME280;3625;51.762;14.320;2023-03-04T11:34:50;100694.44;;;7.64;100.00
7168;BME280;3625;51.762;14.320;2023-03-04T11:37:29;100696.16;;;7.70;100.00
7168;BME280;3625;51.762;14.320;2023-03-04T11:40:03;100691.69;;;7.81;99.08
7168;BME280;3625;51.762;14.320;2023-03-04T11:42:40;100680.25;;;7.86;96.28
7168;BME280;3625;51.762;14.320;2023-03-04T11:45:13;100679.41;;;7.81;95.07
7168;BME280;3625;51.762;14.320;2023-03-04T11:48:07;100698.72;;;7.79;95.31
7168;BME280;3625;51.762;14.320;2023-03-04T11:50:47;100693.50;;;7.73;96.45
7168;BME280;3625;51.762;14.320;2023-03-04T11:53:39;100671.75;;;7.45;96.87
7168;BME280;3625;51.762;14.320;2023-03-04T11:56:29;100684.13;;;7.32;98.49
7168;BME280;3625;51.762;14.320;2023-03-04T12:02:16;100671.97;;;7.08;99.74
7168;BME280;3625;51.762;14.320;2023-03-04T12:05:23;100677.19;;;7.13;100.00
7168;BME280;3625;51.762;14.320;2023-03-04T12:08:32;100669.34;;;7.01;100.00
7168;BME280;3625;51.762;14.320;2023-03-04T12:11:15;100689.44;;;7.22;100.00
7168;BME280;3625;51.762;14.320;2023-03-04T12:14:18;100688.41;;;7.48;100.00
7168;BME280;3625;51.762;14.320;2023-03-04T12:17:23;100680.44;;;7.59;98.85
7168;BME280;3625;51.762;14.320;2023-03-04T12:20:23;100679.50;;;7.68;98.16
7168;BME280;3625;51.762;14.320;2023-03-04T12:23:10;100675.03;;;7.80;96.67
7168;BME280;3625;51.762;14.320;2023-03-04T12:25:54;100681.91;;;7.96;93.48
7168;BME280;3625;51.762;14.320;2023-03-04T12:28:45;100680.94;;;8.13;91.08
7168;BME280;3625;51.762;14.320;2023-03-04T12:31:37;100626.41;;;8.19;91.49
7168;BME280;3625;51.762;14.320;2023-03-04T12:34:30;100686.94;;;8.28;87.72
7168;BME280;3625;51.762;14.320;2023-03-04T12:37:35;100679.25;;;8.00;87.21
7168;BME280;3625;51.762;14.320;2023-03-04T12:40:32;100658.41;;;7.71;88.23
7168;BME280;3625;51.762;14.320;2023-03-04T12:43:27;100639.16;;;7.64;87.47
7168;BME280;3625;51.762;14.320;2023-03-04T12:46:14;100675.03;;;7.80;88.28
7168;BME280;3625;51.762;14.320;2023-03-04T12:48:58;100661.78;;;7.88;87.78
7168;BME280;3625;51.762;14.320;2023-03-04T12:51:37;100674.13;;;7.86;86.67
7168;BME280;3625;51.762;14.320;2023-03-04T12:54:21;100662.66;;;7.90;87.48
7168;BME280;3625;51.762;14.320;2023-03-04T12:56:57;100669.66;;;7.94;87.08
7168;BME280;3625;51.762;14.320;2023-03-04T12:59:35;100641.72;;;7.76;85.86
7168;BME280;3625;51.762;14.320;2023-03-04T13:02:37;100657.50;;;7.76;85.41
7168;BME280;3625;51.762;14.320;2023-03-04T13:08:49;100672.44;;;7.74;81.52
7168;BME280;3625;51.762;14.320;2023-03-04T13:11:49;100665.53;;;7.56;81.13
7168;BME280;3625;51.762;14.320;2023-03-04T13:14:30;100671.69;;;7.54;81.49
7168;BME280;3625;51.762;14.320;2023-03-04T13:17:05;100676.97;;;7.52;82.39
7168;BME280;3625;51.762;14.320;2023-03-04T13:19:56;100667.41;;;7.42;79.68
7168;BME280;3625;51.762;14.320;2023-03-04T13:22:33;100679.69;;;7.39;80.58
7168;BME280;3625;51.762;14.320;2023-03-04T13:25:30;100670.81;;;7.53;80.04
7168;BME280;3625;51.762;14.320;2023-03-04T13:28:22;100683.91;;;7.67;79.21
7168;BME280;3625;51.762;14.320;2023-03-04T13:31:19;100663.66;;;7.77;77.72
7168;BME280;3625;51.762;14.320;2023-03-04T13:34:02;100681.16;;;7.85;74.46
7168;BME280;3625;51.762;14.320;2023-03-04T13:36:53;100645.31;;;7.62;73.07
7168;BME280;3625;51.762;14.320;2023-03-04T13:39:31;100704.94;;;7.70;71.04